Time;durP1;ratioP1;P1;durP2;ratioP2;P2;SDS_P1;SDS_P2;PMS_P1;PMS_P2;Temp;Humidity;BMP_temperature;BMP_pressure;BME280_temperature;BME280_humidity;BME280_pressure;Samples;Min_cycle;Max_cycle;Signal;HPM_P1;HPM_P2
2021/12/09 00:01:22;;;;;;;10.15;5.43;;;2.80;99.90;;;;;;5039597;28;20078;-78
2021/12/09 00:03:51;;;;;;;11.15;6.05;;;2.10;99.90;;;;;;5002775;28;20033;-78
2021/12/09 00:06:21;;;;;;;14.93;5.85;;;2.30;99.90;;;;;;5009004;28;20048;-78
2021/12/09 00:08:47;;;;;;;16.73;6.13;;;2.40;99.90;;;;;;5007598;28;20045;-78
2021/12/09 00:11:13;;;;;;;11.02;6.05;;;2.00;99.90;;;;;;5038900;28;20075;-78
2021/12/09 00:13:39;;;;;;;13.10;6.25;;;2.30;99.90;;;;;;5046918;28;20083;-78
2021/12/09 00:16:05;;;;;;;10.73;6.28;;;2.00;99.90;;;;;;5039444;28;20033;-78
2021/12/09 00:18:31;;;;;;;12.00;6.32;;;2.40;99.90;;;;;;5012295;28;20041;-78
2021/12/09 00:20:57;;;;;;;10.52;5.97;;;;;;;;;;5006569;28;20033;-78
2021/12/09 00:23:23;;;;;;;15.65;6.32;;;1.80;99.90;;;;;;5038776;28;20033;-78
2021/12/09 00:25:49;;;;;;;15.70;6.80;;;1.70;99.90;;;;;;5028552;28;20063;-78
2021/12/09 00:28:14;;;;;;;14.90;6.88;;;1.70;99.90;;;;;;5026253;28;20132;-78
2021/12/09 00:30:40;;;;;;;13.88;6.43;;;1.70;99.90;;;;;;5010278;28;20048;-78
2021/12/09 00:33:07;;;;;;;11.50;6.90;;;1.70;99.90;;;;;;5025179;28;20476;-78
2021/12/09 00:35:47;;;;;;;14.98;6.05;;;2.10;99.90;;;;;;5064151;28;20045;-78
2021/12/09 00:38:21;;;;;;;11.65;6.38;;;1.60;99.90;;;;;;5010331;28;20116;-78
2021/12/09 00:40:48;;;;;;;13.07;6.38;;;2.00;99.90;;;;;;4994313;28;20112;-78
2021/12/09 00:43:17;;;;;;;9.95;6.65;;;1.90;99.90;;;;;;5014361;28;20533;-78
2021/12/09 00:45:44;;;;;;;16.75;7.18;;;1.60;99.90;;;;;;5015410;28;20045;-78
2021/12/09 00:48:09;;;;;;;16.98;6.85;;;1.60;99.90;;;;;;5046138;28;20072;-78
2021/12/09 00:50:35;;;;;;;12.20;6.82;;;1.60;99.90;;;;;;5019798;28;20107;-78
2021/12/09 00:53:01;;;;;;;16.38;7.20;;;1.60;99.90;;;;;;5010180;28;20048;-78
2021/12/09 00:55:27;;;;;;;12.98;7.55;;;1.60;99.90;;;;;;4995898;28;20443;-77
2021/12/09 00:57:53;;;;;;;18.70;6.97;;;1.50;99.90;;;;;;5044771;28;20032;-77
2021/12/09 01:00:21;;;;;;;11.88;7.53;;;1.50;99.90;;;;;;5036013;28;20051;-77
2021/12/09 01:02:48;;;;;;;14.90;7.57;;;2.10;99.90;;;;;;5012955;28;20041;-77
2021/12/09 01:05:14;;;;;;;13.82;7.32;;;1.40;99.90;;;;;;5042220;28;20269;-77
2021/12/09 01:07:43;;;;;;;11.60;6.95;;;1.40;99.90;;;;;;5038938;28;20044;-77
2021/12/09 01:10:13;;;;;;;11.93;6.95;;;1.20;99.90;;;;;;5008078;28;20481;-78
2021/12/09 01:12:39;;;;;;;11.27;7.15;;;1.30;99.90;;;;;;5010520;28;20037;-78
2021/12/09 01:15:09;;;;;;;12.48;7.22;;;1.30;99.90;;;;;;5027981;28;20052;-78
2021/12/09 01:17:35;;;;;;;12.00;7.30;;;1.20;99.90;;;;;;5048186;28;20454;-78
2021/12/09 01:20:02;;;;;;;11.48;7.43;;;1.20;99.90;;;;;;5063350;28;20037;-78
2021/12/09 01:22:36;;;;;;;11.60;7.10;;;1.20;99.90;;;;;;5013672;28;20065;-78
2021/12/09 01:25:03;;;;;;;12.80;7.75;;;1.20;99.90;;;;;;5012424;28;20037;-78
2021/12/09 01:27:32;;;;;;;13.85;7.28;;;1.10;99.90;;;;;;5011045;28;20055;-78
2021/12/09 01:30:00;;;;;;;16.30;7.63;;;1.10;99.90;;;;;;5014782;28;20477;-78
2021/12/09 01:32:30;;;;;;;17.83;7.65;;;1.10;99.90;;;;;;5043042;28;20052;-78
2021/12/09 01:34:56;;;;;;;18.48;8.60;;;1.10;99.90;;;;;;5030558;28;20048;-78
2021/12/09 01:37:21;;;;;;;13.82;8.18;;;1.10;99.90;;;;;;5062741;28;20033;-78
2021/12/09 01:39:47;;;;;;;15.05;8.15;;;1.40;99.90;;;;;;5031099;28;20127;-78
2021/12/09 01:42:13;;;;;;;13.52;8.00;;;1.00;99.90;;;;;;5033095;28;20102;-78
2021/12/09 01:44:38;;;;;;;17.08;7.97;;;1.10;99.90;;;;;;5050430;28;20053;-77
2021/12/09 01:47:04;;;;;;;21.73;8.55;;;1.10;99.90;;;;;;5016353;28;20500;-77
2021/12/09 01:49:30;;;;;;;18.30;8.02;;;1.00;99.90;;;;;;5023384;28;20140;-77
2021/12/09 01:51:56;;;;;;;14.75;8.40;;;1.10;99.90;;;;;;5030118;28;22032;-77
2021/12/09 01:54:24;;;;;;;11.95;7.95;;;1.10;99.90;;;;;;5056476;28;20075;-77
2021/12/09 01:56:50;;;;;;;16.65;8.25;;;1.10;99.90;;;;;;5010868;28;20052;-78
2021/12/09 01:59:16;;;;;;;16.50;7.38;;;1.10;99.90;;;;;;5046049;28;20087;-77
2021/12/09 02:01:42;;;;;;;19.88;9.93;;;1.10;99.90;;;;;;5032418;28;20392;-78
2021/12/09 02:04:10;;;;;;;15.35;8.80;;;1.90;99.90;;;;;;5016391;28;20132;-78
2021/12/09 02:06:40;;;;;;;17.15;8.48;;;1.20;99.90;;;;;;5026543;28;20156;-78
2021/12/09 02:09:08;;;;;;;11.35;8.32;;;1.20;99.90;;;;;;5029887;28;20041;-78
2021/12/09 02:11:34;;;;;;;18.23;8.55;;;1.20;99.90;;;;;;5043352;28;20099;-77
2021/12/09 02:14:00;;;;;;;12.68;8.05;;;1.20;99.90;;;;;;5021747;28;20068;-78
2021/12/09 02:16:26;;;;;;;15.20;8.60;;;2.00;99.90;;;;;;5022689;28;20510;-78
2021/12/09 02:18:53;;;;;;;16.38;9.00;;;1.20;99.90;;;;;;5050943;28;20795;-78
2021/12/09 02:21:25;;;;;;;13.82;8.75;;;1.20;99.90;;;;;;5043464;28;20033;-78
2021/12/09 02:23:54;;;;;;;13.80;8.95;;;1.20;99.90;;;;;;5038374;28;21494;-77
2021/12/09 02:26:27;;;;;;;16.05;8.32;;;1.10;99.90;;;;;;5039255;28;20132;-77
2021/12/09 02:28:54;;;;;;;14.77;8.15;;;1.20;99.90;;;;;;5020503;28;20029;-77
2021/12/09 02:31:21;;;;;;;17.45;8.50;;;1.20;99.90;;;;;;5037439;28;20132;-77
2021/12/09 02:33:47;;;;;;;18.00;8.55;;;1.20;99.90;;;;;;4999099;28;20037;-77
2021/12/09 02:36:13;;;;;;;16.63;9.57;;;1.60;99.90;;;;;;5047430;28;20059;-77
2021/12/09 02:38:45;;;;;;;17.52;8.85;;;2.00;99.90;;;;;;5019190;28;20037;-77
2021/12/09 02:41:18;;;;;;;15.68;9.10;;;1.20;99.90;;;;;;5030589;28;20515;-78
2021/12/09 02:43:47;;;;;;;15.63;9.43;;;1.10;99.90;;;;;;5034352;28;20037;-77
2021/12/09 02:46:15;;;;;;;17.13;9.30;;;1.40;99.90;;;;;;5017605;28;20052;-78
2021/12/09 02:48:41;;;;;;;12.93;8.23;;;1.10;99.90;;;;;;5031343;28;20083;-78
2021/12/09 02:51:07;;;;;;;13.57;8.55;;;1.10;99.90;;;;;;4959385;28;1168386;-77
2021/12/09 02:53:34;;;;;;;12.75;8.50;;;2.10;99.90;;;;;;5024214;28;20058;-78
2021/12/09 02:56:00;;;;;;;16.02;8.48;;;1.10;99.90;;;;;;5044448;28;20043;-77
2021/12/09 02:58:25;;;;;;;13.40;8.13;;;1.10;99.90;;;;;;5045445;28;20034;-77
2021/12/09 03:00:57;;;;;;;13.73;8.98;;;1.20;99.90;;;;;;5017712;28;20406;-77
2021/12/09 03:03:23;;;;;;;;;;;1.20;99.90;;;;;;5045706;28;20402;-77
2021/12/09 03:05:52;;;;;;;15.77;9.63;;;1.10;99.90;;;;;;5045056;28;19925;-77
2021/12/09 03:08:23;;;;;;;13.32;8.77;;;1.10;99.90;;;;;;5037480;28;20049;-77
2021/12/09 03:10:48;;;;;;;17.55;9.77;;;1.20;99.90;;;;;;5032826;28;20041;-77
2021/12/09 03:13:16;;;;;;;15.95;8.52;;;2.20;99.90;;;;;;5011073;28;20033;-77
2021/12/09 03:15:42;;;;;;;18.90;9.88;;;1.20;99.90;;;;;;5014347;28;20038;-77
2021/12/09 03:18:07;;;;;;;13.50;8.35;;;1.40;99.90;;;;;;5018068;28;20076;-78
2021/12/09 03:20:33;;;;;;;14.57;9.45;;;1.20;99.90;;;;;;4984435;28;20560;-77
2021/12/09 03:22:59;;;;;;;18.25;10.25;;;1.20;99.90;;;;;;5032047;28;20124;-77
2021/12/09 03:25:25;;;;;;;19.20;9.45;;;1.30;99.90;;;;;;4980488;28;20044;-77
2021/12/09 03:27:50;;;;;;;17.75;10.02;;;1.30;99.90;;;;;;5011011;28;20037;-77
2021/12/09 03:30:19;;;;;;;16.52;9.02;;;1.30;99.90;;;;;;4982205;28;20042;-78
2021/12/09 03:32:45;;;;;;;16.10;9.98;;;1.30;99.90;;;;;;5048314;28;20033;-78
2021/12/09 03:35:13;;;;;;;17.27;9.25;;;1.70;99.90;;;;;;5021072;28;20022;-78
2021/12/09 03:37:40;;;;;;;17.92;9.25;;;1.30;99.90;;;;;;5046469;28;20129;-77
2021/12/09 03:40:07;;;;;;;17.90;10.70;;;1.20;99.90;;;;;;5035381;28;20036;-77
2021/12/09 03:42:34;;;;;;;21.92;11.82;;;1.20;99.90;;;;;;5020634;28;20457;-77
2021/12/09 03:45:00;;;;;;;18.98;10.20;;;1.20;99.90;;;;;;5033091;28;20038;-78
2021/12/09 03:47:29;;;;;;;19.67;12.15;;;1.10;99.90;;;;;;5019302;28;20049;-78
2021/12/09 03:49:56;;;;;;;18.27;10.70;;;1.10;99.90;;;;;;5001718;28;20056;-78
2021/12/09 03:52:22;;;;;;;18.77;10.70;;;1.10;99.90;;;;;;5025090;28;20072;-77
2021/12/09 03:54:48;;;;;;;17.88;10.75;;;1.10;99.90;;;;;;5012521;28;20075;-77
2021/12/09 03:57:14;;;;;;;19.08;10.25;;;1.10;99.90;;;;;;5040851;28;20091;-77
2021/12/09 03:59:41;;;;;;;19.42;10.95;;;1.10;99.90;;;;;;4992944;28;20030;-78
2021/12/09 04:02:08;;;;;;;16.42;10.00;;;1.10;99.90;;;;;;4997115;28;20045;-77
2021/12/09 04:04:34;;;;;;;18.15;10.68;;;1.00;99.90;;;;;;5023536;28;20030;-77
2021/12/09 04:07:00;;;;;;;16.83;10.55;;;1.10;99.90;;;;;;5045664;28;20135;-77
2021/12/09 04:09:26;;;;;;;21.02;11.38;;;2.40;99.90;;;;;;5002759;28;20143;-77
2021/12/09 04:11:52;;;;;;;20.33;12.38;;;1.60;99.90;;;;;;5050208;28;20099;-77
2021/12/09 04:14:20;;;;;;;17.20;10.35;;;1.00;99.90;;;;;;5024774;28;20041;-77
2021/12/09 04:16:47;;;;;;;17.75;11.65;;;1.00;99.90;;;;;;5042987;28;20416;-77
2021/12/09 04:19:14;;;;;;;18.05;11.60;;;-0.20;99.90;;;;;;5014955;28;20029;-77
2021/12/09 04:21:41;;;;;;;21.13;12.02;;;1.00;99.90;;;;;;5062673;28;20098;-77
2021/12/09 04:24:08;;;;;;;19.55;12.75;;;0.90;99.90;;;;;;5024846;28;20041;-77
2021/12/09 04:26:36;;;;;;;25.25;12.15;;;1.20;99.90;;;;;;5038830;28;20041;-77
2021/12/09 04:29:03;;;;;;;22.77;12.48;;;0.80;99.90;;;;;;4988065;28;20429;-78
2021/12/09 04:31:28;;;;;;;22.13;12.90;;;0.80;99.90;;;;;;5017015;28;20547;-77
2021/12/09 04:33:54;;;;;;;30.40;15.23;;;0.80;99.90;;;;;;5001976;28;20033;-77
2021/12/09 04:36:21;;;;;;;26.95;13.00;;;0.80;99.90;;;;;;5010740;28;20080;-78
2021/12/09 04:38:48;;;;;;;24.40;12.82;;;0.80;99.90;;;;;;5030892;28;20160;-77
2021/12/09 04:41:15;;;;;;;23.65;12.95;;;0.80;99.90;;;;;;5001666;28;20041;-77
2021/12/09 04:43:42;;;;;;;26.88;13.02;;;0.70;99.90;;;;;;5025734;28;20080;-77
2021/12/09 04:46:09;;;;;;;29.08;14.60;;;0.70;99.90;;;;;;5023585;28;20056;-77
2021/12/09 04:48:35;;;;;;;28.23;14.23;;;0.70;99.90;;;;;;5026389;28;20126;-77
2021/12/09 04:51:02;;;;;;;21.63;13.35;;;0.70;99.90;;;;;;4996665;28;20065;-78
2021/12/09 04:53:27;;;;;;;23.55;14.32;;;0.70;99.90;;;;;;5049365;28;20048;-77
2021/12/09 04:55:53;;;;;;;27.23;13.30;;;0.80;99.90;;;;;;5037878;28;20033;-77
2021/12/09 04:58:20;;;;;;;21.63;13.55;;;0.80;99.90;;;;;;5029798;28;20665;-78
2021/12/09 05:00:48;;;;;;;21.88;12.90;;;0.70;99.90;;;;;;5023920;28;20029;-77
2021/12/09 05:03:14;;;;;;;19.00;12.27;;;0.70;99.90;;;;;;5002877;28;20040;-77
2021/12/09 05:09:18;;;;;;;26.17;13.10;;;0.60;99.90;;;;;;5060540;28;20048;-78
2021/12/09 05:11:48;;;;;;;26.02;12.60;;;0.50;99.90;;;;;;5033176;28;20041;-77
2021/12/09 05:14:16;;;;;;;25.58;13.63;;;0.50;99.90;;;;;;5000521;28;20060;-77
2021/12/09 05:16:43;;;;;;;23.70;12.38;;;1.40;99.90;;;;;;5051113;28;20039;-77
2021/12/09 05:19:09;;;;;;;22.77;14.32;;;0.40;99.90;;;;;;5058507;28;20088;-77
2021/12/09 05:21:39;;;;;;;22.25;14.27;;;0.40;99.90;;;;;;4997903;28;20030;-78
2021/12/09 05:24:07;;;;;;;24.27;13.05;;;0.30;99.90;;;;;;5015338;28;20123;-78
2021/12/09 05:26:41;;;;;;;26.17;14.45;;;0.30;99.90;;;;;;5021955;28;20068;-78
2021/12/09 05:29:07;;;;;;;24.30;13.77;;;0.50;99.90;;;;;;5012038;28;20044;-77
2021/12/09 05:34:17;;;;;;;27.92;14.20;;;0.30;99.90;;;;;;5014262;28;20045;-78
2021/12/09 05:36:42;;;;;;;23.60;14.38;;;1.10;99.90;;;;;;5014881;28;20048;-78
2021/12/09 05:39:11;;;;;;;25.85;14.07;;;0.30;99.90;;;;;;5047795;28;20041;-77
2021/12/09 05:41:38;;;;;;;25.85;13.50;;;0.20;99.90;;;;;;5020940;28;20086;-77
2021/12/09 05:44:05;;;;;;;24.25;15.23;;;0.20;99.90;;;;;;5004236;28;20064;-77
2021/12/09 05:46:34;;;;;;;21.25;13.35;;;2.00;99.90;;;;;;5026558;28;20484;-77
2021/12/09 05:48:59;;;;;;;25.48;14.20;;;0.20;99.90;;;;;;5030036;28;20044;-77
2021/12/09 05:51:26;;;;;;;24.95;13.15;;;0.20;99.90;;;;;;5008470;28;20061;-77
2021/12/09 05:53:52;;;;;;;25.02;15.00;;;1.00;99.90;;;;;;5011338;28;20713;-77
2021/12/09 05:56:19;;;;;;;28.35;13.45;;;0.10;99.90;;;;;;5023627;28;20036;-77
2021/12/09 05:58:45;;;;;;;25.10;13.63;;;0.10;99.90;;;;;;5029830;28;20049;-77
2021/12/09 06:01:11;;;;;;;28.48;15.20;;;0.10;99.90;;;;;;5006410;28;20115;-77
2021/12/09 06:03:37;;;;;;;25.52;15.15;;;1.10;99.90;;;;;;5009736;28;20403;-77
2021/12/09 06:06:03;;;;;;;31.70;15.57;;;0.20;99.90;;;;;;5008612;28;20113;-78
2021/12/09 06:08:28;;;;;;;26.77;15.13;;;0.10;99.90;;;;;;5026604;28;20119;-77
2021/12/09 06:10:54;;;;;;;33.95;16.48;;;0.20;99.90;;;;;;5052045;28;20168;-77
2021/12/09 06:13:22;;;;;;;27.27;15.13;;;0.30;99.90;;;;;;5012381;28;20037;-77
2021/12/09 06:15:48;;;;;;;27.33;15.18;;;0.30;99.90;;;;;;4999052;28;20037;-77
2021/12/09 06:18:14;;;;;;;28.75;14.57;;;0.30;99.90;;;;;;5030130;28;20037;-77
2021/12/09 06:20:40;;;;;;;27.30;14.77;;;0.30;99.90;;;;;;5000809;28;20033;-77
2021/12/09 06:23:06;;;;;;;27.20;15.77;;;0.30;99.90;;;;;;5049444;28;20140;-77
2021/12/09 06:25:32;;;;;;;31.42;15.35;;;-0.10;99.90;;;;;;5009860;28;20460;-77
2021/12/09 06:27:58;;;;;;;29.90;16.15;;;0.30;99.90;;;;;;5029546;28;20206;-75
2021/12/09 06:30:24;;;;;;;35.67;15.35;;;0.20;99.90;;;;;;5033480;28;20123;-78
2021/12/09 06:32:50;;;;;;;31.33;16.33;;;0.30;99.90;;;;;;5004090;28;20038;-78
2021/12/09 06:35:17;;;;;;;30.55;15.00;;;0.30;99.90;;;;;;4977562;28;20116;-78
2021/12/09 06:37:45;;;;;;;29.55;15.23;;;1.20;99.90;;;;;;5045761;28;20036;-78
2021/12/09 06:40:17;;;;;;;26.42;15.32;;;0.30;99.90;;;;;;5009068;28;20032;-76
2021/12/09 06:42:44;;;;;;;28.88;16.63;;;0.30;99.90;;;;;;5013387;28;20068;-77
2021/12/09 06:45:11;;;;;;;25.85;14.88;;;1.20;99.90;;;;;;5037857;28;20051;-78
2021/12/09 06:47:38;;;;;;;27.30;13.18;;;0.30;99.90;;;;;;4993989;28;20044;-77
2021/12/09 06:50:06;;;;;;;27.90;14.82;;;0.40;99.90;;;;;;5047890;28;20049;-77
2021/12/09 06:52:32;;;;;;;30.77;15.50;;;0.40;99.90;;;;;;5019281;28;20489;-77
2021/12/09 06:54:59;;;;;;;30.10;15.80;;;0.40;99.90;;;;;;4998928;28;20042;-77
2021/12/09 06:57:24;;;;;;;32.60;16.48;;;0.40;99.90;;;;;;5020239;28;20481;-77
2021/12/09 06:59:50;;;;;;;29.55;15.95;;;0.40;99.90;;;;;;5023133;28;20036;-77
2021/12/09 07:02:17;;;;;;;25.55;15.27;;;0.40;99.90;;;;;;5029824;28;20180;-77
2021/12/09 07:04:43;;;;;;;31.33;17.05;;;1.10;99.90;;;;;;5026575;28;20042;-77
2021/12/09 07:07:08;;;;;;;28.45;15.23;;;0.40;99.90;;;;;;5050697;28;20548;-77
2021/12/09 07:09:36;;;;;;;28.42;15.93;;;1.40;99.90;;;;;;5015111;28;20038;-77
2021/12/09 07:12:02;;;;;;;27.98;15.40;;;0.50;99.90;;;;;;5063896;28;20063;-76
2021/12/09 07:14:28;;;;;;;30.75;16.10;;;0.30;99.90;;;;;;5032828;28;20045;-80
2021/12/09 07:16:54;;;;;;;27.77;14.73;;;0.30;99.90;;;;;;4996525;28;20451;-79
2021/12/09 07:19:19;;;;;;;27.45;15.90;;;0.40;99.90;;;;;;4990264;28;20041;-77
2021/12/09 07:21:45;;;;;;;38.28;15.38;;;0.40;99.90;;;;;;5009649;28;20033;-76
2021/12/09 07:24:11;;;;;;;31.55;15.90;;;0.30;99.90;;;;;;5024779;28;20049;-76
2021/12/09 07:26:37;;;;;;;30.27;15.52;;;0.40;99.90;;;;;;5026154;28;20409;-78
2021/12/09 07:29:04;;;;;;;36.08;17.38;;;0.30;99.90;;;;;;5055046;28;20036;-78
2021/12/09 07:31:30;;;;;;;30.75;16.23;;;0.30;99.90;;;;;;5023784;28;20593;-77
2021/12/09 07:33:57;;;;;;;30.30;16.33;;;0.40;99.90;;;;;;5026894;28;20116;-77
2021/12/09 07:36:23;;;;;;;28.75;16.23;;;0.30;99.90;;;;;;5027565;28;20052;-78
2021/12/09 07:38:49;;;;;;;39.22;15.77;;;1.60;99.90;;;;;;5031141;28;20033;-78
2021/12/09 07:41:16;;;;;;;30.00;16.50;;;0.30;99.90;;;;;;5004854;28;20120;-77
2021/12/09 07:43:43;;;;;;;31.35;16.23;;;0.30;99.90;;;;;;5017486;28;20045;-78
2021/12/09 07:46:09;;;;;;;26.27;16.35;;;0.30;99.90;;;;;;5028421;28;20033;-77
2021/12/09 07:48:35;;;;;;;36.63;17.40;;;0.40;99.90;;;;;;5019147;28;20106;-78
2021/12/09 07:51:01;;;;;;;28.67;16.63;;;0.40;99.90;;;;;;5028653;28;20084;-78
2021/12/09 07:53:28;;;;;;;28.98;16.67;;;0.40;99.90;;;;;;4998140;28;20067;-78
2021/12/09 07:55:54;;;;;;;29.65;15.93;;;0.40;99.90;;;;;;5017830;28;20548;-78
2021/12/09 07:58:20;;;;;;;37.30;18.50;;;0.30;99.90;;;;;;5000504;28;20087;-78
2021/12/09 08:00:47;;;;;;;31.20;16.55;;;0.40;99.90;;;;;;5013643;28;20045;-78
2021/12/09 08:03:13;;;;;;;27.45;15.15;;;0.90;99.90;;;;;;5036965;28;20042;-78
2021/12/09 08:05:45;;;;;;;32.50;15.23;;;0.30;99.90;;;;;;5036281;28;20460;-78
2021/12/09 08:08:11;;;;;;;28.70;14.95;;;0.40;99.90;;;;;;5036108;28;20151;-78
2021/12/09 08:10:37;;;;;;;27.13;14.98;;;0.40;99.90;;;;;;5020621;28;20404;-78
2021/12/09 08:13:04;;;;;;;27.58;14.52;;;0.50;99.90;;;;;;5024565;28;20038;-77
2021/12/09 08:15:34;;;;;;;26.63;13.77;;;0.50;99.90;;;;;;5027082;28;20098;-78
2021/12/09 08:18:25;;;;;;;23.75;12.52;;;0.50;99.90;;;;;;5070564;28;20029;-78
2021/12/09 08:20:52;;;;;;;26.13;13.85;;;0.60;99.90;;;;;;5027214;28;20480;-78
2021/12/09 08:23:19;;;;;;;25.73;13.02;;;1.40;99.90;;;;;;5031813;28;20424;-77
2021/12/09 08:25:46;;;;;;;29.00;15.15;;;0.60;99.90;;;;;;5002406;28;20439;-77
2021/12/09 08:28:12;;;;;;;24.05;12.32;;;0.60;99.90;;;;;;5045424;28;20083;-77
2021/12/09 08:30:38;;;;;;;27.98;14.82;;;0.70;99.90;;;;;;5016456;28;20068;-77
2021/12/09 08:33:08;;;;;;;28.58;14.50;;;1.00;99.90;;;;;;5076171;28;20040;-78
2021/12/09 08:35:35;;;;;;;21.35;12.75;;;0.80;99.90;;;;;;5039029;28;20029;-78
2021/12/09 08:38:23;;;;;;;27.45;13.98;;;0.70;99.90;;;;;;5052248;28;20048;-78
2021/12/09 08:40:49;;;;;;;21.38;12.25;;;0.80;99.90;;;;;;5014047;28;20068;-77
2021/12/09 08:43:16;;;;;;;24.80;12.40;;;0.80;99.90;;;;;;5000913;28;20091;-77
2021/12/09 08:45:43;;;;;;;22.83;13.23;;;1.20;99.90;;;;;;5039448;28;20059;-77
2021/12/09 08:48:09;;;;;;;23.10;11.93;;;0.90;99.90;;;;;;5059603;28;20051;-77
2021/12/09 08:50:37;;;;;;;25.00;12.50;;;0.90;99.90;;;;;;5031221;28;20068;-77
2021/12/09 08:53:07;;;;;;;20.17;10.93;;;1.00;99.90;;;;;;5030580;28;20049;-77
2021/12/09 08:55:33;;;;;;;24.30;10.88;;;1.00;99.90;;;;;;5041806;28;20030;-77
2021/12/09 08:57:59;;;;;;;23.52;13.02;;;1.10;99.90;;;;;;5005914;28;20052;-78
2021/12/09 09:00:26;;;;;;;16.45;9.68;;;1.10;99.90;;;;;;5027025;28;20032;-77
2021/12/09 09:02:52;;;;;;;20.67;10.23;;;1.20;99.90;;;;;;5031477;28;20083;-77
2021/12/09 09:05:18;;;;;;;19.90;10.65;;;1.20;99.90;;;;;;5019778;28;20068;-77
2021/12/09 09:07:46;;;;;;;24.45;12.02;;;1.30;99.90;;;;;;5036266;28;20068;-77
2021/12/09 09:10:15;;;;;;;24.23;11.82;;;1.30;99.90;;;;;;5041560;28;20048;-77
2021/12/09 09:12:41;;;;;;;24.75;10.65;;;1.30;99.90;;;;;;5032203;28;20397;-77
2021/12/09 09:15:10;;;;;;;24.33;10.57;;;1.40;99.90;;;;;;5050457;28;20036;-78
2021/12/09 09:17:36;;;;;;;15.27;8.40;;;1.50;99.90;;;;;;5034206;28;20032;-78
2021/12/09 09:20:05;;;;;;;15.93;9.50;;;1.80;99.90;;;;;;5060899;28;20049;-77
2021/12/09 09:22:31;;;;;;;20.05;11.02;;;1.60;99.90;;;;;;5088837;28;20033;-77
2021/12/09 09:24:57;;;;;;;16.70;9.57;;;2.20;99.90;;;;;;5082876;28;20036;-77
2021/12/09 09:27:23;;;;;;;18.88;9.50;;;1.70;99.90;;;;;;5042870;28;20051;-77
2021/12/09 09:29:48;;;;;;;20.02;8.52;;;1.70;99.90;;;;;;5049126;28;20388;-77
2021/12/09 09:32:14;;;;;;;20.60;8.85;;;1.80;99.90;;;;;;5020356;28;20041;-77
2021/12/09 09:34:40;;;;;;;17.20;8.52;;;2.60;99.90;;;;;;5049689;28;20048;-77
2021/12/09 09:37:06;;;;;;;18.23;9.13;;;1.90;99.90;;;;;;5035661;28;20416;-77
2021/12/09 09:39:33;;;;;;;15.57;8.02;;;1.90;99.90;;;;;;5064094;28;20040;-77
2021/12/09 09:44:47;;;;;;;17.40;8.52;;;2.10;99.90;;;;;;5067541;28;20052;-78
2021/12/09 09:47:14;;;;;;;20.00;8.32;;;2.10;99.90;;;;;;5069417;28;20119;-77
2021/12/09 09:49:41;;;;;;;14.00;7.38;;;2.20;99.90;;;;;;5029170;28;20053;-77
2021/12/09 09:52:09;;;;;;;13.63;6.93;;;2.20;99.90;;;;;;5021735;28;20045;-77
2021/12/09 09:54:39;;;;;;;20.10;8.25;;;2.60;99.90;;;;;;5038793;28;20052;-76
2021/12/09 09:57:06;;;;;;;16.17;9.57;;;2.30;99.90;;;;;;5053885;28;20041;-76
2021/12/09 09:59:32;;;;;;;12.30;7.40;;;2.30;99.90;;;;;;5036036;28;20045;-77
2021/12/09 10:01:58;;;;;;;11.35;7.60;;;2.90;99.90;;;;;;5025567;28;20040;-77
2021/12/09 10:04:44;;;;;;;15.02;8.35;;;2.60;99.90;;;;;;5034039;28;20035;-77
2021/12/09 10:07:12;;;;;;;15.52;6.93;;;2.40;99.90;;;;;;5015642;28;20034;-77
2021/12/09 10:09:39;;;;;;;15.10;6.93;;;2.40;99.90;;;;;;5031838;28;20420;-78
2021/12/09 10:12:05;;;;;;;13.27;8.18;;;2.50;99.90;;;;;;5007832;28;20059;-77
2021/12/09 10:14:33;;;;;;;13.52;6.35;;;2.50;99.90;;;;;;4996289;28;20124;-78
2021/12/09 10:17:11;;;;;;;19.15;6.70;;;2.80;99.90;;;;;;5007329;28;20127;-78
2021/12/09 10:19:47;;;;;;;17.90;8.88;;;2.60;99.90;;;;;;5007423;28;20044;-78
2021/12/09 10:22:21;;;;;;;12.88;8.02;;;3.10;99.90;;;;;;5030356;28;20038;-78
2021/12/09 10:24:54;;;;;;;13.30;6.95;;;2.70;99.90;;;;;;5013486;28;20103;-78
2021/12/09 10:27:30;;;;;;;15.73;7.70;;;2.80;99.90;;;;;;5028265;28;20061;-78
2021/12/09 10:30:16;;;;;;;15.30;7.15;;;2.80;99.90;;;;;;5001224;28;20397;-78
2021/12/09 10:32:43;;;;;;;10.35;6.38;;;2.80;99.90;;;;;;5004565;28;20143;-78
2021/12/09 10:35:15;;;;;;;15.00;7.18;;;2.80;99.90;;;;;;5012104;28;20172;-78
2021/12/09 10:37:44;;;;;;;12.43;8.00;;;2.90;99.90;;;;;;5017643;28;20045;-78
2021/12/09 10:40:22;;;;;;;12.80;6.20;;;2.90;99.90;;;;;;4986453;28;20116;-78
2021/12/09 10:42:51;;;;;;;13.05;7.05;;;3.00;99.90;;;;;;5007309;28;20119;-78
2021/12/09 10:45:23;;;;;;;11.63;6.63;;;3.00;99.90;;;;;;5012218;28;20037;-78
2021/12/09 10:48:05;;;;;;;10.05;5.65;;;3.10;99.90;;;;;;4994470;28;20095;-78
2021/12/09 10:50:44;;;;;;;13.25;6.90;;;3.20;99.90;;;;;;5025774;28;20096;-78
2021/12/09 10:55:57;;;;;;;15.13;6.57;;;3.90;99.90;;;;;;5025052;28;20454;-76
2021/12/09 10:58:29;;;;;;;16.30;7.18;;;2.40;99.90;;;;;;5030835;28;20071;-77
2021/12/09 11:00:55;;;;;;;;;;;3.20;99.90;;;;;;5012929;28;20067;-78
2021/12/09 11:03:25;;;;;;;13.70;6.40;;;3.40;99.90;;;;;;5032578;28;19928;-76
2021/12/09 11:05:58;;;;;;;14.75;5.82;;;3.20;99.90;;;;;;5038438;28;20040;-77
2021/12/09 11:08:28;;;;;;;14.73;7.22;;;3.20;99.90;;;;;;5066904;28;20065;-76
2021/12/09 11:11:10;;;;;;;14.85;7.85;;;3.20;99.90;;;;;;5055765;28;20119;-76
2021/12/09 11:13:37;;;;;;;14.00;7.72;;;3.20;99.90;;;;;;5013461;28;20285;-76
2021/12/09 11:16:05;;;;;;;15.07;8.35;;;3.20;99.90;;;;;;5041655;28;20059;-76
2021/12/09 11:18:45;;;;;;;16.25;9.02;;;3.20;99.90;;;;;;5041079;28;20029;-77
2021/12/09 11:21:19;;;;;;;13.18;5.68;;;3.20;99.90;;;;;;5030504;28;20041;-78
2021/12/09 11:23:58;;;;;;;14.00;6.72;;;3.20;99.90;;;;;;5034457;28;20049;-77
2021/12/09 11:26:51;;;;;;;15.63;8.52;;;3.10;99.90;;;;;;5041618;28;20040;-75
2021/12/09 11:29:55;;;;;;;15.48;8.65;;;3.10;99.90;;;;;;5024587;28;20497;-75
2021/12/09 11:32:48;;;;;;;18.23;7.85;;;3.10;99.90;;;;;;5023340;28;20063;-75
2021/12/09 11:35:27;;;;;;;17.67;8.90;;;3.10;99.90;;;;;;5074788;28;20523;-77
2021/12/09 11:40:36;;;;;;;19.38;9.60;;;3.10;99.90;;;;;;5032562;28;20103;-77
2021/12/09 11:43:04;;;;;;;24.20;9.80;;;3.10;99.90;;;;;;5036566;28;20051;-78
2021/12/09 11:45:42;;;;;;;18.90;9.32;;;3.10;99.90;;;;;;5027908;28;20115;-78
2021/12/09 11:48:09;;;;;;;18.23;10.50;;;3.20;99.90;;;;;;5058226;28;20041;-77
2021/12/09 11:50:46;;;;;;;19.90;10.35;;;3.10;99.90;;;;;;5018332;28;20057;-77
2021/12/09 11:53:15;;;;;;;21.77;9.35;;;3.10;99.90;;;;;;5022030;28;20071;-78
2021/12/09 11:55:46;;;;;;;22.42;11.25;;;3.10;99.90;;;;;;5034569;28;20071;-78
2021/12/09 11:58:22;;;;;;;19.75;9.85;;;3.70;99.90;;;;;;5032012;28;20076;-76
2021/12/09 12:13:03;;;;;;;13.77;8.13;;;3.10;99.90;;;;;;5039879;28;20484;-77
2021/12/09 12:18:51;;;;;;;16.05;9.38;;;3.60;99.90;;;;;;5040939;28;20592;-77
2021/12/09 12:24:24;;;;;;;15.98;8.02;;;3.20;99.90;;;;;;5027448;28;20182;-77
2021/12/09 12:27:04;;;;;;;10.07;5.35;;;3.20;99.90;;;;;;5007609;28;20040;-76
2021/12/09 12:30:15;;;;;;;17.00;9.20;;;3.20;99.90;;;;;;5008270;28;20098;-76
2021/12/09 12:40:32;;;;;;;16.45;9.75;;;3.20;99.90;;;;;;5051036;28;20123;-77
2021/12/09 12:43:11;;;;;;;18.58;11.38;;;3.20;99.90;;;;;;5032545;28;20041;-77
2021/12/09 12:48:56;;;;;;;16.92;10.07;;;3.60;99.90;;;;;;5029188;28;20075;-77
2021/12/09 12:51:30;;;;;;;17.63;9.57;;;3.30;99.90;;;;;;5060365;28;20165;-77
2021/12/09 12:54:01;;;;;;;15.82;8.85;;;3.30;99.90;;;;;;5028702;28;20044;-76
2021/12/09 12:56:32;;;;;;;18.27;10.52;;;3.30;99.90;;;;;;5031443;28;20516;-75
2021/12/09 12:59:08;;;;;;;22.13;11.13;;;3.30;99.90;;;;;;5032265;28;20045;-77
2021/12/09 13:01:36;;;;;;;23.02;10.07;;;3.30;99.90;;;;;;5043580;28;20040;-77
2021/12/09 13:04:45;;;;;;;19.15;9.80;;;3.30;99.90;;;;;;4996160;28;20037;-77
2021/12/09 13:07:32;;;;;;;25.02;11.13;;;3.30;99.90;;;;;;5027289;28;20115;-78
2021/12/09 13:10:27;;;;;;;18.98;9.95;;;3.30;99.90;;;;;;5061382;28;20135;-77
2021/12/09 13:13:31;;;;;;;20.50;10.05;;;3.30;99.90;;;;;;5022502;28;20132;-77
2021/12/09 13:18:46;;;;;;;19.98;10.57;;;3.40;99.90;;;;;;5033939;28;20104;-76
2021/12/09 13:21:42;;;;;;;21.52;9.93;;;3.40;99.90;;;;;;5033863;28;20084;-76
2021/12/09 13:24:45;;;;;;;19.98;11.38;;;3.40;99.90;;;;;;5026351;28;20032;-76
2021/12/09 13:35:27;;;;;;;19.88;10.15;;;3.40;99.90;;;;;;5034881;28;20067;-76
2021/12/09 13:46:10;;;;;;;22.55;12.82;;;3.40;99.90;;;;;;5065407;28;20037;-77
2021/12/09 13:48:48;;;;;;;23.00;12.15;;;3.40;99.90;;;;;;5033486;28;20048;-76
2021/12/09 13:54:24;;;;;;;23.15;9.45;;;3.50;99.90;;;;;;5032481;28;21028;-76
2021/12/09 13:57:05;;;;;;;24.25;10.80;;;3.40;99.90;;;;;;5030836;28;20068;-76
2021/12/09 13:59:34;;;;;;;27.00;12.30;;;3.90;99.90;;;;;;5032754;28;20068;-76